Time;durP1;ratioP1;P1;durP2;ratioP2;P2;SDS_P1;SDS_P2;PMS_P1;PMS_P2;Temp;Humidity;BMP_temperature;BMP_pressure;BME280_temperature;BME280_humidity;BME280_pressure;Samples;Min_cycle;Max_cycle;Signal;HPM_P1;HPM_P2
2022/06/14 00:02:37;;;;;;;4.73;2.10;;;;;;;;;;4969064;28;21479;-74
2022/06/14 00:05:03;;;;;;;4.83;2.00;;;;;;;;;;4987210;28;20316;-73
2022/06/14 00:07:28;;;;;;;6.40;2.00;;;;;;;;;;4973049;28;20233;-74
2022/06/14 00:09:56;;;;;;;5.83;1.93;;;;;;;;;;4988287;28;20217;-74
2022/06/14 00:12:26;;;;;;;6.87;2.23;;;;;;;;;;4953959;28;20308;-73
2022/06/14 00:14:54;;;;;;;3.10;2.30;;;;;;;;;;4972555;28;20714;-72
2022/06/14 00:17:22;;;;;;;4.47;2.20;;;;;;;;;;4955504;28;20268;-74
2022/06/14 00:19:47;;;;;;;4.37;2.20;;;;;;;;;;4970148;28;20214;-74
2022/06/14 00:22:15;;;;;;;6.00;2.30;;;;;;;;;;4937874;28;20615;-73
2022/06/14 00:24:45;;;;;;;7.07;2.57;;;;;;;;;;4970698;28;20264;-75
2022/06/14 00:27:15;;;;;;;4.93;2.20;;;;;;;;;;4954522;28;20684;-73
2022/06/14 00:29:40;;;;;;;3.13;2.00;;;;;;;;;;4930621;28;20213;-73
2022/06/14 00:32:08;;;;;;;4.13;2.03;;;;;;;;;;4949888;28;20239;-73
2022/06/14 00:34:36;;;;;;;4.07;2.23;;;;;;;;;;4974298;28;20228;-73
2022/06/14 00:37:02;;;;;;;4.93;2.30;;;;;;;;;;4969083;28;20715;-74
2022/06/14 00:39:32;;;;;;;3.97;2.40;;;;;;;;;;4949455;28;20708;-74
2022/06/14 00:42:00;;;;;;;4.87;2.17;;;;;;;;;;4949954;28;20224;-74
2022/06/14 00:44:27;;;;;;;6.23;2.80;;;;;;;;;;4964925;28;20586;-74
2022/06/14 00:47:11;;;;;;;5.53;2.40;;;;;;;;;;4939790;28;20225;-74
2022/06/14 00:49:52;;;;;;;6.73;2.37;;;;;;;;;;4969018;28;20663;-74
2022/06/14 00:52:23;;;;;;;4.67;2.17;;;;;;;;;;4967020;28;20233;-74
2022/06/14 00:54:54;;;;;;;4.40;2.20;;;;;;;;;;4951890;28;20272;-74
2022/06/14 00:57:21;;;;;;;4.10;2.27;;;;;;;;;;4955108;28;20233;-73
2022/06/14 00:59:55;;;;;;;4.83;2.37;;;;;;;;;;4986994;28;20248;-73
2022/06/14 01:02:28;;;;;;;5.37;2.40;;;;;;;;;;4967845;28;20217;-73
2022/06/14 01:04:56;;;;;;;4.40;2.33;;;;;;;;;;4971415;28;20724;-74
2022/06/14 01:07:26;;;;;;;3.97;2.17;;;;;;;;;;4943821;28;20597;-73
2022/06/14 01:10:04;;;;;;;3.90;2.50;;;;;;;;;;4971201;28;20217;-73
2022/06/14 01:12:32;;;;;;;6.33;2.60;;;;;;;;;;4938282;28;20942;-73
2022/06/14 01:15:00;;;;;;;4.17;2.33;;;;;;;;;;4975918;28;20727;-73
2022/06/14 01:17:25;;;;;;;4.00;2.10;;;;;;;;;;4986819;28;20233;-73
2022/06/14 01:19:53;;;;;;;4.37;2.23;;;;;;;;;;4949321;28;20225;-75
2022/06/14 01:22:19;;;;;;;4.67;2.40;;;;;;;;;;4969584;28;20291;-74
2022/06/14 01:24:49;;;;;;;5.20;2.50;;;;;;;;;;4988298;28;20236;-73
2022/06/14 01:27:17;;;;;;;5.67;2.10;;;;;;;;;;4938698;28;20224;-73
2022/06/14 01:29:52;;;;;;;4.80;2.30;;;;;;;;;;4957083;28;20667;-74
2022/06/14 01:32:23;;;;;;;4.33;2.20;;;;;;;;;;4952848;28;20221;-72
2022/06/14 01:34:53;;;;;;;3.30;1.93;;;;;;;;;;4939678;28;20236;-72
2022/06/14 01:37:21;;;;;;;2.70;2.37;;;;;;;;;;4976066;28;20230;-73
2022/06/14 01:39:52;;;;;;;6.17;2.70;;;;;;;;;;4947038;28;20224;-74
2022/06/14 01:42:18;;;;;;;4.07;2.77;;;;;;;;;;4978138;28;20225;-74
2022/06/14 01:45:08;;;;;;;5.13;2.40;;;;;;;;;;4998928;28;20607;-73
2022/06/14 01:47:50;;;;;;;2.87;2.53;;;;;;;;;;4957092;28;20732;-72
2022/06/14 01:53:30;;;;;;;5.13;2.30;;;;;;;;;;4994988;28;20229;-72
2022/06/14 01:56:01;;;;;;;6.60;2.83;;;;;;;;;;4978057;28;20561;-73
2022/06/14 01:58:44;;;;;;;5.07;2.60;;;;;;;;;;4960498;28;20229;-73
2022/06/14 02:01:24;;;;;;;5.00;2.70;;;;;;;;;;4913993;28;20318;-74
2022/06/14 02:07:13;;;;;;;3.97;2.80;;;;;;;;;;4978472;28;20225;-73
2022/06/14 02:09:47;;;;;;;4.70;3.13;;;;;;;;;;4976191;28;20271;-73
2022/06/14 02:12:21;;;;;;;6.60;2.90;;;;;;;;;;4973332;28;20368;-73
2022/06/14 02:15:16;;;;;;;6.90;3.07;;;;;;;;;;4951167;28;20229;-73
2022/06/14 02:17:50;;;;;;;7.23;2.80;;;;;;;;;;4991695;28;20273;-73
2022/06/14 02:20:20;;;;;;;5.93;3.00;;;;;;;;;;4971968;28;20229;-73
2022/06/14 02:22:52;;;;;;;4.73;3.00;;;;;;;;;;4973100;28;20224;-73
2022/06/14 02:25:21;;;;;;;5.67;3.17;;;;;;;;;;4989019;28;20296;-73
2022/06/14 02:27:51;;;;;;;4.27;3.03;;;;;;;;;;4965736;28;20328;-74
2022/06/14 02:30:21;;;;;;;4.43;2.93;;;;;;;;;;4955225;28;20240;-74
2022/06/14 02:32:52;;;;;;;4.60;2.97;;;;;;;;;;4956155;28;20229;-73
2022/06/14 02:35:25;;;;;;;5.17;3.07;;;;;;;;;;4988165;28;20258;-73
2022/06/14 02:37:56;;;;;;;4.20;3.23;;;;;;;;;;4970759;28;20755;-74
2022/06/14 02:40:48;;;;;;;5.47;3.23;;;;;;;;;;4990370;28;20233;-72
2022/06/14 02:43:26;;;;;;;4.73;3.13;;;;;;;;;;4956862;28;20240;-72
2022/06/14 02:46:04;;;;;;;5.43;3.30;;;;;;;;;;4959383;28;20237;-74
2022/06/14 02:48:31;;;;;;;6.23;3.47;;;;;;;;;;4939203;28;20217;-74
2022/06/14 02:50:59;;;;;;;3.57;3.23;;;;;;;;;;4957124;28;20229;-74
2022/06/14 02:53:37;;;;;;;5.87;3.10;;;;;;;;;;4941119;28;20295;-73
2022/06/14 02:56:21;;;;;;;4.97;3.37;;;;;;;;;;4939789;28;20229;-73
2022/06/14 02:59:08;;;;;;;4.70;3.40;;;;;;;;;;4960266;28;20221;-73
2022/06/14 03:01:57;;;;;;;7.53;3.20;;;;;;;;;;4985252;28;21544;-74
2022/06/14 03:04:38;;;;;;;5.83;3.40;;;;;;;;;;4970849;28;20260;-73
2022/06/14 03:07:27;;;;;;;5.03;3.13;;;;;;;;;;4934989;28;20226;-74
2022/06/14 03:09:55;;;;;;;6.23;3.40;;;;;;;;;;4963699;28;20708;-73
2022/06/14 03:12:26;;;;;;;4.90;3.20;;;;;;;;;;4935770;28;20369;-74
2022/06/14 03:14:59;;;;;;;4.53;3.00;;;;;;;;;;4961667;28;20229;-73
2022/06/14 03:17:44;;;;;;;5.00;3.20;;;;;;;;;;4971942;28;20257;-74
2022/06/14 03:20:50;;;;;;;5.83;3.00;;;;;;;;;;4983237;28;20221;-73
2022/06/14 03:23:42;;;;;;;5.27;3.10;;;;;;;;;;4966470;28;20248;-73
2022/06/14 03:26:32;;;;;;;5.23;2.97;;;;;;;;;;4958025;28;20759;-74
2022/06/14 03:29:15;;;;;;;3.60;2.57;;;;;;;;;;4985797;28;20253;-76
2022/06/14 03:31:49;;;;;;;7.10;3.17;;;;;;;;;;4963107;28;20305;-73
2022/06/14 03:34:24;;;;;;;4.23;2.83;;;;;;;;;;4971163;28;20224;-72
2022/06/14 03:36:52;;;;;;;5.60;2.97;;;;;;;;;;4959780;28;20240;-73
2022/06/14 03:39:25;;;;;;;5.17;3.23;;;;;;;;;;4955330;28;20217;-73
2022/06/14 03:41:53;;;;;;;4.50;3.07;;;;;;;;;;4969068;28;20217;-73
2022/06/14 03:44:21;;;;;;;4.10;3.13;;;;;;;;;;4971227;28;20607;-74
2022/06/14 03:47:24;;;;;;;6.73;3.43;;;;;;;;;;4953790;28;20217;-73
2022/06/14 03:49:59;;;;;;;5.03;3.17;;;;;;;;;;4968669;28;20220;-75
2022/06/14 03:52:56;;;;;;;4.33;3.50;;;;;;;;;;4954151;28;20221;-75
2022/06/14 03:55:38;;;;;;;4.47;3.30;;;;;;;;;;4985785;28;20256;-74
2022/06/14 03:58:16;;;;;;;5.70;3.63;;;;;;;;;;4985315;28;20233;-75
2022/06/14 04:00:53;;;;;;;6.57;3.60;;;;;;;;;;4986905;28;20221;-75
2022/06/14 04:04:01;;;;;;;5.90;3.53;;;;;;;;;;4983949;28;20971;-73
2022/06/14 04:06:47;;;;;;;7.10;3.30;;;;;;;;;;4987232;28;20225;-73
2022/06/14 04:09:18;;;;;;;7.13;3.73;;;;;;;;;;4972347;28;20217;-74
2022/06/14 04:12:02;;;;;;;4.13;3.37;;;;;;;;;;4985642;28;20248;-74
2022/06/14 04:14:47;;;;;;;5.10;3.80;;;;;;;;;;4970050;28;20252;-75
2022/06/14 04:17:20;;;;;;;5.03;3.17;;;;;;;;;;4989600;28;20710;-75
2022/06/14 04:19:59;;;;;;;5.23;3.70;;;;;;;;;;4957209;28;20217;-73
2022/06/14 04:22:33;;;;;;;6.80;3.90;;;;;;;;;;4965539;28;20249;-74
2022/06/14 04:25:10;;;;;;;4.70;3.30;;;;;;;;;;4951358;28;20230;-75
2022/06/14 04:28:05;;;;;;;5.80;3.63;;;;;;;;;;4950891;28;20213;-72
2022/06/14 04:30:59;;;;;;;5.47;3.53;;;;;;;;;;4973090;28;20221;-73
2022/06/14 04:33:48;;;;;;;4.97;3.53;;;;;;;;;;4952978;28;20312;-73
2022/06/14 04:36:40;;;;;;;7.37;3.70;;;;;;;;;;4987543;28;20229;-75
2022/06/14 04:39:15;;;;;;;4.70;3.70;;;;;;;;;;4987050;28;20974;-73
2022/06/14 04:41:46;;;;;;;5.97;3.73;;;;;;;;;;4966786;28;20226;-74
2022/06/14 04:44:21;;;;;;;7.00;3.73;;;;;;;;;;4966124;28;20624;-74
2022/06/14 04:47:09;;;;;;;5.17;3.93;;;;;;;;;;4945174;28;20221;-73
2022/06/14 04:49:59;;;;;;;6.10;4.03;;;;;;;;;;4962418;28;20233;-73
2022/06/14 04:52:28;;;;;;;8.40;3.73;;;;;;;;;;4988231;28;20280;-74
2022/06/14 04:55:07;;;;;;;5.60;4.10;;;;;;;;;;4966801;28;20233;-73
2022/06/14 04:57:43;;;;;;;6.33;3.97;;;;;;;;;;4964878;28;20222;-73
2022/06/14 05:00:12;;;;;;;7.80;3.60;;;;;;;;;;4985499;28;20228;-74
2022/06/14 05:02:46;;;;;;;6.37;4.10;;;;;;;;;;4982379;28;20260;-73
2022/06/14 05:05:14;;;;;;;5.23;3.93;;;;;;;;;;4965160;28;20230;-73
2022/06/14 05:08:10;;;;;;;7.50;4.03;;;;;;;;;;4982118;28;20247;-73
2022/06/14 05:10:48;;;;;;;7.10;3.77;;;;;;;;;;4990769;28;20260;-73
2022/06/14 05:13:33;;;;;;;5.70;3.67;;;;;;;;;;4962180;28;20221;-74
2022/06/14 05:16:02;;;;;;;4.53;3.60;;;;;;;;;;4957253;28;20249;-74
2022/06/14 05:18:40;;;;;;;3.67;3.27;;;;;;;;;;4939953;28;20232;-72
2022/06/14 05:21:13;;;;;;;6.93;3.63;;;;;;;;;;4988465;28;20418;-73
2022/06/14 05:23:44;;;;;;;6.90;3.57;;;;;;;;;;4957043;28;20269;-73
2022/06/14 05:26:24;;;;;;;10.23;3.70;;;;;;;;;;4945635;28;20241;-73
2022/06/14 05:29:30;;;;;;;4.77;3.20;;;;;;;;;;4956105;28;20295;-72
2022/06/14 05:32:08;;;;;;;7.90;3.77;;;;;;;;;;4984706;28;20244;-73
2022/06/14 05:34:45;;;;;;;7.33;3.43;;;;;;;;;;4983347;28;20225;-73
2022/06/14 05:37:22;;;;;;;6.00;3.37;;;;;;;;;;4969471;28;20231;-73
2022/06/14 05:40:19;;;;;;;6.00;3.40;;;;;;;;;;4980848;28;20259;-72
2022/06/14 05:42:53;;;;;;;6.60;2.73;;;;;;;;;;4958583;28;20261;-73
2022/06/14 05:45:23;;;;;;;6.80;3.20;;;;;;;;;;4968149;28;20236;-73
2022/06/14 05:47:51;;;;;;;5.00;2.93;;;;;;;;;;4984036;28;20217;-72
2022/06/14 05:50:19;;;;;;;7.97;2.90;;;;;;;;;;4964633;28;21023;-72
2022/06/14 05:52:46;;;;;;;7.37;2.80;;;;;;;;;;4967566;28;20228;-70
2022/06/14 05:55:17;;;;;;;6.00;2.60;;;;;;;;;;4986306;28;20251;-70
2022/06/14 05:57:52;;;;;;;6.03;2.00;;;;;;;;;;4971651;28;20260;-74
2022/06/14 06:00:22;;;;;;;5.67;2.20;;;;;;;;;;4969473;28;20897;-72
2022/06/14 06:03:08;;;;;;;4.00;2.10;;;;;;;;;;4969612;28;20301;-73
2022/06/14 06:05:45;;;;;;;6.70;2.10;;;;;;;;;;4968344;28;20225;-72
2022/06/14 06:09:02;;;;;;;5.38;2.00;;;;;;;;;;4981462;28;20248;-73
2022/06/14 06:11:28;;;;;;;6.43;1.80;;;;;;;;;;4957619;28;20355;-74
2022/06/14 06:14:23;;;;;;;4.55;1.52;;;;;;;;;;4969534;28;20741;-73
2022/06/14 06:17:15;;;;;;;4.13;1.55;;;;;;;;;;4984458;28;20229;-73
2022/06/14 06:20:06;;;;;;;6.57;1.80;;;;;;;;;;4972588;28;20224;-73
2022/06/14 06:22:43;;;;;;;6.10;1.90;;;;;;;;;;4968229;28;20229;-73
2022/06/14 06:25:21;;;;;;;5.25;1.75;;;;;;;;;;4955011;28;20229;-72
2022/06/14 06:27:52;;;;;;;4.97;1.53;;;;;;;;;;4953881;28;20221;-72
2022/06/14 06:30:56;;;;;;;5.68;2.05;;;;;;;;;;4947697;28;20653;-72
2022/06/14 06:33:21;;;;;;;9.17;2.10;;;;;;;;;;4962838;28;20230;-74
2022/06/14 06:35:56;;;;;;;5.32;1.83;;;;;;;;;;4951433;28;20317;-73
2022/06/14 06:38:36;;;;;;;5.95;2.10;;;;;;;;;;4965142;28;20252;-75
2022/06/14 06:44:05;;;;;;;6.68;1.73;;;;;;;;;;4940230;28;20226;-72
2022/06/14 06:46:35;;;;;;;8.85;1.90;;;;;;;;;;4964755;28;20244;-73
2022/06/14 06:49:01;;;;;;;7.82;2.00;;;;;;;;;;4958163;28;20320;-73
2022/06/14 06:51:34;;;;;;;6.78;1.92;;;;;;;;;;4955792;28;20613;-71
2022/06/14 06:54:11;;;;;;;6.65;1.98;;;;;;;;;;4956630;28;20233;-73
2022/06/14 06:56:40;;;;;;;5.60;2.08;;;;;;;;;;4974998;28;20631;-72
2022/06/14 06:59:16;;;;;;;6.90;2.28;;;;;;;;;;4969962;28;20221;-73
2022/06/14 07:01:44;;;;;;;6.93;2.00;;;;;;;;;;4968661;28;20233;-73
2022/06/14 07:05:03;;;;;;;4.65;1.85;;;;;;;;;;4968831;28;20224;-74
2022/06/14 07:07:28;;;;;;;6.07;2.13;;;;;;;;;;4973181;28;20769;-73
2022/06/14 07:10:31;;;;;;;6.13;1.85;;;;;;;;;;4989226;28;20275;-72
2022/06/14 07:13:04;;;;;;;7.57;1.95;;;;;;;;;;4948063;28;20237;-72
2022/06/14 07:15:49;;;;;;;6.30;2.28;;;;;;;;;;4982117;28;20301;-72
2022/06/14 07:18:17;;;;;;;9.75;2.35;;;;;;;;;;4962351;28;20234;-71
2022/06/14 07:20:56;;;;;;;7.47;2.22;;;;;;;;;;4989150;28;20312;-72
2022/06/14 07:23:38;;;;;;;6.47;2.20;;;;;;;;;;4971056;28;20217;-72
2022/06/14 07:26:09;;;;;;;6.05;2.00;;;;;;;;;;4989272;28;20765;-73
2022/06/14 07:28:39;;;;;;;8.82;2.35;;;;;;;;;;4995864;28;20225;-72
2022/06/14 07:31:11;;;;;;;4.68;2.05;;;;;;;;;;4970561;28;20225;-73
2022/06/14 07:33:39;;;;;;;6.28;2.03;;;;;;;;;;4965415;28;20782;-72
2022/06/14 07:36:15;;;;;;;5.88;2.03;;;;;;;;;;4970491;28;20238;-72
2022/06/14 07:38:53;;;;;;;7.03;2.10;;;;;;;;;;4952097;28;20221;-72
2022/06/14 07:41:38;;;;;;;9.90;2.45;;;;;;;;;;4969932;28;20220;-73
2022/06/14 07:44:09;;;;;;;6.55;2.05;;;;;;;;;;4970318;28;20225;-72
2022/06/14 07:46:56;;;;;;;6.80;2.03;;;;;;;;;;4988407;28;20687;-71
2022/06/14 07:49:46;;;;;;;6.15;1.80;;;;;;;;;;4934929;28;20286;-72
2022/06/14 07:52:17;;;;;;;6.63;2.10;;;;;;;;;;5001984;22;20238;-81
2022/06/14 07:54:45;;;;;;;7.38;1.95;;;;;;;;;;4974807;28;20261;-80
2022/06/14 07:57:16;;;;;;;4.82;2.05;;;;;;;;;;4963071;28;20289;-80
2022/06/14 08:03:33;;;;;;;5.05;2.03;;;;;;;;;;4978699;28;20245;-82
2022/06/14 08:06:01;;;;;;;6.00;2.00;;;;;;;;;;4944859;28;20226;-80
2022/06/14 08:08:28;;;;;;;7.47;2.10;;;;;;;;;;4960157;28;20241;-81
2022/06/14 08:11:00;;;;;;;7.60;2.13;;;;;;;;;;4945278;28;20218;-82
2022/06/14 08:13:29;;;;;;;7.57;2.15;;;;;;;;;;4953481;28;20321;-82
2022/06/14 08:16:00;;;;;;;6.88;2.22;;;;;;;;;;4950090;28;20226;-83
2022/06/14 08:18:30;;;;;;;8.45;2.25;;;;;;;;;;4947841;28;20262;-81
2022/06/14 08:24:46;;;;;;;8.20;2.00;;;;;;;;;;4990885;23;20288;-72
2022/06/14 08:27:13;;;;;;;6.53;2.28;;;;;;;;;;4970393;28;20221;-71
2022/06/14 08:29:53;;;;;;;7.07;1.77;;;;;;;;;;4987268;28;20217;-71
2022/06/14 08:32:34;;;;;;;6.97;2.00;;;;;;;;;;4983548;28;20232;-71
2022/06/14 08:35:31;;;;;;;5.57;1.75;;;;;;;;;;4962976;28;20233;-72
2022/06/14 08:38:08;;;;;;;5.97;2.00;;;;;;;;;;4965278;28;20242;-74
2022/06/14 08:40:55;;;;;;;6.82;2.00;;;;;;;;;;4935107;28;20655;-71
2022/06/14 08:43:29;;;;;;;6.63;2.08;;;;;;;;;;4952935;28;20229;-71
2022/06/14 08:46:27;;;;;;;4.40;1.70;;;;;;;;;;4934446;28;20226;-73
2022/06/14 08:49:28;;;;;;;8.45;2.30;;;;;;;;;;4954251;28;20618;-72
2022/06/14 08:52:20;;;;;;;5.50;1.80;;;;;;;;;;4964321;28;20257;-73
2022/06/14 08:55:09;;;;;;;4.43;1.73;;;;;;;;;;4977354;28;20222;-72
2022/06/14 08:58:04;;;;;;;5.20;1.50;;;;;;;;;;4967127;28;20368;-72
2022/06/14 09:00:51;;;;;;;5.30;1.73;;;;;;;;;;4924281;28;20696;-70
2022/06/14 09:03:37;;;;;;;5.07;1.70;;;;;;;;;;4978679;28;20746;-73
2022/06/14 09:06:14;;;;;;;5.03;1.58;;;;;;;;;;4966740;28;20221;-72
2022/06/14 09:08:42;;;;;;;7.93;1.75;;;;;;;;;;4967474;28;20862;-72
2022/06/14 09:11:26;;;;;;;6.20;1.92;;;;;;;;;;4980403;28;20230;-73
2022/06/14 09:14:25;;;;;;;5.57;1.83;;;;;;;;;;4965872;28;20223;-72
2022/06/14 09:17:29;;;;;;;7.13;1.60;;;;;;;;;;4966777;28;20634;-74
2022/06/14 09:20:05;;;;;;;6.85;2.10;;;;;;;;;;4969627;28;20233;-74
2022/06/14 09:22:44;;;;;;;7.78;1.90;;;;;;;;;;4932512;28;20226;-73
2022/06/14 09:25:32;;;;;;;4.55;1.85;;;;;;;;;;4969068;28;20225;-73
2022/06/14 09:28:20;;;;;;;4.07;1.50;;;;;;;;;;4968239;28;20307;-72
2022/06/14 09:31:08;;;;;;;5.32;1.73;;;;;;;;;;4971325;28;20240;-73
2022/06/14 09:34:04;;;;;;;9.23;1.80;;;;;;;;;;4985874;28;20225;-71
2022/06/14 09:36:55;;;;;;;4.90;1.77;;;;;;;;;;4980488;28;20226;-74
2022/06/14 09:39:23;;;;;;;4.70;1.70;;;;;;;;;;4955450;28;20221;-72
2022/06/14 09:42:12;;;;;;;5.38;2.03;;;;;;;;;;4984240;28;20316;-72
2022/06/14 09:45:18;;;;;;;4.85;1.60;;;;;;;;;;4969139;28;20313;-74
2022/06/14 09:48:02;;;;;;;4.03;1.55;;;;;;;;;;4960882;28;20229;-72
2022/06/14 09:50:46;;;;;;;3.20;1.40;;;;;;;;;;4969992;28;20245;-74
2022/06/14 09:53:49;;;;;;;4.05;1.60;;;;;;;;;;4986139;28;20221;-71
2022/06/14 09:56:53;;;;;;;5.78;1.65;;;;;;;;;;4969240;28;20221;-72
2022/06/14 09:59:22;;;;;;;3.88;1.33;;;;;;;;;;4934696;29;20374;-69
2022/06/14 10:01:54;;;;;;;6.43;1.90;;;;;;;;;;4977379;28;20248;-71
2022/06/14 10:04:40;;;;;;;6.22;1.73;;;;;;;;;;4968580;28;20225;-71
2022/06/14 10:07:17;;;;;;;3.50;1.40;;;;;;;;;;4971971;28;20734;-69
2022/06/14 10:10:19;;;;;;;7.35;1.73;;;;;;;;;;4972268;28;20231;-69
2022/06/14 10:13:05;;;;;;;6.45;1.60;;;;;;;;;;4936352;28;20259;-69
2022/06/14 10:15:51;;;;;;;6.07;1.98;;;;;;;;;;4987853;28;20770;-71
2022/06/14 10:18:45;;;;;;;4.22;1.52;;;;;;;;;;4986050;28;20232;-71
2022/06/14 10:21:28;;;;;;;4.85;1.70;;;;;;;;;;4976994;28;20921;-71
2022/06/14 10:24:02;;;;;;;5.38;1.60;;;;;;;;;;4953321;28;20225;-70
2022/06/14 10:30:08;;;;;;;4.55;1.60;;;;;;;;;;4987403;28;20683;-72
2022/06/14 10:32:42;;;;;;;5.45;1.80;;;;;;;;;;4971456;28;20233;-72
2022/06/14 10:35:22;;;;;;;4.75;1.70;;;;;;;;;;4970788;28;20323;-71
2022/06/14 10:37:53;;;;;;;5.07;1.58;;;;;;;;;;4956753;28;20225;-70
2022/06/14 10:40:47;;;;;;;5.57;1.77;;;;;;;;;;4975778;28;20283;-70
2022/06/14 10:43:19;;;;;;;5.45;1.88;;;;;;;;;;4957222;28;20218;-74
2022/06/14 10:45:51;;;;;;;7.35;1.60;;;;;;;;;;4977285;28;20275;-74
2022/06/14 10:48:36;;;;;;;5.65;1.70;;;;;;;;;;4960522;28;20291;-78
2022/06/14 10:51:06;;;;;;;4.78;1.67;;;;;;;;;;4976260;28;20867;-73
2022/06/14 10:53:58;;;;;;;6.57;1.67;;;;;;;;;;4987455;28;20312;-73
2022/06/14 10:56:42;;;;;;;4.97;1.80;;;;;;;;;;4974845;28;20281;-74
2022/06/14 10:59:32;;;;;;;6.20;1.67;;;;;;;;;;4993920;28;20244;-72
2022/06/14 11:02:22;;;;;;;3.45;1.50;;;;;;;;;;4989061;28;20312;-73
2022/06/14 11:05:04;;;;;;;5.10;1.60;;;;;;;;;;4990059;28;20650;-74
2022/06/14 11:08:07;;;;;;;7.20;1.83;;;;;;;;;;4988593;28;20224;-74
2022/06/14 11:10:55;;;;;;;3.83;1.92;;;;;;;;;;4973257;28;20597;-77
2022/06/14 11:13:51;;;;;;;7.32;2.17;;;;;;;;;;4984367;28;20227;-73
2022/06/14 11:16:48;;;;;;;5.90;1.80;;;;;;;;;;4989388;28;20898;-72
2022/06/14 11:19:31;;;;;;;5.57;2.13;;;;;;;;;;4971722;28;20222;-74
2022/06/14 11:22:17;;;;;;;5.50;1.70;;;;;;;;;;4971873;28;20232;-73
2022/06/14 11:24:55;;;;;;;5.03;1.60;;;;;;;;;;4987616;28;20230;-73
2022/06/14 11:27:49;;;;;;;5.32;1.88;;;;;;;;;;4988834;28;20231;-73
2022/06/14 11:30:33;;;;;;;5.30;1.85;;;;;;;;;;4972639;28;20722;-73
2022/06/14 11:33:01;;;;;;;4.82;1.63;;;;;;;;;;4956590;28;21002;-73
2022/06/14 11:35:58;;;;;;;5.93;1.83;;;;;;;;;;4952970;28;21039;-72
2022/06/14 11:38:33;;;;;;;3.75;1.58;;;;;;;;;;4959122;28;20325;-73
2022/06/14 11:41:06;;;;;;;5.53;1.70;;;;;;;;;;4991324;28;20229;-73
2022/06/14 11:43:55;;;;;;;3.38;1.80;;;;;;;;;;4988191;28;20229;-74
2022/06/14 11:46:49;;;;;;;5.10;1.63;;;;;;;;;;4938453;28;20642;-73
2022/06/14 11:49:29;;;;;;;3.00;1.42;;;;;;;;;;4961257;28;20304;-75
2022/06/14 11:52:03;;;;;;;7.03;1.67;;;;;;;;;;4974035;28;20766;-74
2022/06/14 11:54:38;;;;;;;4.47;1.73;;;;;;;;;;4989123;28;20311;-73
2022/06/14 11:57:09;;;;;;;3.55;1.63;;;;;;;;;;4986235;28;20260;-73
2022/06/14 12:00:17;;;;;;;5.38;1.75;;;;;;;;;;4975714;28;20233;-73
2022/06/14 12:03:10;;;;;;;5.05;1.63;;;;;;;;;;4973723;28;20217;-73
2022/06/14 12:05:47;;;;;;;4.07;1.70;;;;;;;;;;4976005;28;20236;-73
2022/06/14 12:08:49;;;;;;;4.80;1.70;;;;;;;;;;4961264;28;20224;-73
2022/06/14 12:11:24;;;;;;;5.72;1.60;;;;;;;;;;4936426;28;20583;-73
2022/06/14 12:14:11;;;;;;;6.60;1.63;;;;;;;;;;4959630;28;20256;-73
2022/06/14 12:16:39;;;;;;;3.33;1.73;;;;;;;;;;4991255;28;20237;-74
2022/06/14 12:19:20;;;;;;;3.28;1.52;;;;;;;;;;4962000;28;20236;-74
2022/06/14 12:22:26;;;;;;;3.55;1.50;;;;;;;;;;4975084;28;20282;-73
2022/06/14 12:27:55;;;;;;;6.53;1.80;;;;;;;;;;4992776;28;20363;-74
2022/06/14 12:30:21;;;;;;;3.70;1.50;;;;;;;;;;4949375;28;20221;-74
2022/06/14 12:32:58;;;;;;;5.57;1.73;;;;;;;;;;4959330;28;20305;-73
2022/06/14 12:35:28;;;;;;;7.72;1.73;;;;;;;;;;4969318;28;20225;-73
2022/06/14 12:38:05;;;;;;;6.45;2.03;;;;;;;;;;4956617;28;20225;-74
2022/06/14 12:40:46;;;;;;;4.03;1.52;;;;;;;;;;4959392;28;20228;-73
2022/06/14 12:43:41;;;;;;;7.00;1.80;;;;;;;;;;4943931;28;20683;-74
2022/06/14 12:46:13;;;;;;;4.00;2.13;;;;;;;;;;4947487;28;20707;-73
2022/06/14 12:49:08;;;;;;;4.63;1.90;;;;;;;;;;4986217;28;20233;-74
2022/06/14 12:51:46;;;;;;;5.78;1.90;;;;;;;;;;4984026;28;20641;-73
2022/06/14 12:54:27;;;;;;;5.00;1.55;;;;;;;;;;4973043;28;20228;-73
2022/06/14 12:57:04;;;;;;;4.00;1.50;;;;;;;;;;4954400;28;20748;-72
2022/06/14 12:59:44;;;;;;;6.05;1.80;;;;;;;;;;4983979;28;20331;-73
2022/06/14 13:02:16;;;;;;;4.85;1.50;;;;;;;;;;4970173;28;20733;-74
2022/06/14 13:04:59;;;;;;;4.10;1.60;;;;;;;;;;4955838;28;20225;-73
2022/06/14 13:07:27;;;;;;;3.65;1.58;;;;;;;;;;4987862;28;20221;-73
2022/06/14 13:10:28;;;;;;;3.42;1.40;;;;;;;;;;4955345;28;20219;-74
2022/06/14 13:12:56;;;;;;;4.20;1.63;;;;;;;;;;4972008;28;20699;-75
2022/06/14 13:15:42;;;;;;;4.43;1.67;;;;;;;;;;4973858;28;20229;-72
2022/06/14 13:18:27;;;;;;;5.20;1.65;;;;;;;;;;4956181;28;20648;-75
2022/06/14 13:21:07;;;;;;;6.38;1.95;;;;;;;;;;4960277;28;20738;-73
2022/06/14 13:23:45;;;;;;;6.40;1.60;;;;;;;;;;4954327;28;20229;-74
2022/06/14 13:26:50;;;;;;;3.67;1.70;;;;;;;;;;4975347;28;20236;-73
2022/06/14 13:29:16;;;;;;;5.18;1.80;;;;;;;;;;4961255;28;20265;-73
2022/06/14 13:32:09;;;;;;;6.00;2.00;;;;;;;;;;4958168;28;20237;-74
2022/06/14 13:34:41;;;;;;;7.72;1.73;;;;;;;;;;4978163;28;20221;-75
2022/06/14 13:37:12;;;;;;;4.80;1.88;;;;;;;;;;4989016;28;20234;-74
2022/06/14 13:40:05;;;;;;;5.28;1.70;;;;;;;;;;4969701;28;20234;-74
2022/06/14 13:42:57;;;;;;;4.82;1.75;;;;;;;;;;4958279;28;20217;-74
2022/06/14 13:45:50;;;;;;;4.72;1.77;;;;;;;;;;4988282;28;20233;-73
2022/06/14 13:48:20;;;;;;;4.45;1.70;;;;;;;;;;4996590;28;20221;-74
2022/06/14 13:50:51;;;;;;;5.82;1.75;;;;;;;;;;4978016;28;20709;-74
2022/06/14 13:53:28;;;;;;;3.20;1.55;;;;;;;;;;4960929;28;20225;-75
2022/06/14 13:56:04;;;;;;;3.22;1.50;;;;;;;;;;4980158;28;20225;-75
2022/06/14 13:58:35;;;;;;;3.85;1.63;;;;;;;;;;4968555;28;20701;-75
2022/06/14 14:01:01;;;;;;;4.88;1.70;;;;;;;;;;4981373;28;20228;-74
2022/06/14 14:03:43;;;;;;;3.45;1.42;;;;;;;;;;4993978;28;20308;-74
2022/06/14 14:06:21;;;;;;;5.10;1.77;;;;;;;;;;4970614;28;20226;-74
2022/06/14 14:09:02;;;;;;;4.35;1.60;;;;;;;;;;4980858;28;20706;-74
2022/06/14 14:11:31;;;;;;;4.65;2.00;;;;;;;;;;4983366;28;20232;-74
2022/06/14 14:14:27;;;;;;;6.13;1.85;;;;;;;;;;4984330;28;20272;-73
2022/06/14 14:17:07;;;;;;;4.75;1.70;;;;;;;;;;4962705;28;20261;-73
2022/06/14 14:19:55;;;;;;;3.72;1.63;;;;;;;;;;4988350;28;20236;-73
2022/06/14 14:22:26;;;;;;;4.45;1.63;;;;;;;;;;4977310;28;20248;-74
2022/06/14 14:25:13;;;;;;;4.55;1.75;;;;;;;;;;4990728;28;20319;-73
2022/06/14 14:27:38;;;;;;;3.35;1.70;;;;;;;;;;4944234;28;20304;-73
2022/06/14 14:30:27;;;;;;;4.68;1.50;;;;;;;;;;4974945;28;20316;-73
2022/06/14 14:33:05;;;;;;;3.50;1.70;;;;;;;;;;4949193;28;20229;-73
2022/06/14 14:35:44;;;;;;;3.80;1.70;;;;;;;;;;4977073;28;20267;-74
2022/06/14 14:38:14;;;;;;;5.30;1.65;;;;;;;;;;4985187;28;20233;-75
2022/06/14 14:41:32;;;;;;;4.40;1.70;;;;;;;;;;4972103;28;20248;-74
2022/06/14 14:43:34;;;;;;;5.90;1.75;;;;;;;;;;4991605;28;20237;-74
2022/06/14 14:46:33;;;;;;;4.20;1.50;;;;;;;;;;4969258;28;20233;-73
2022/06/14 14:49:43;;;;;;;2.97;1.50;;;;;;;;;;4958671;28;20237;-74
2022/06/14 14:52:28;;;;;;;4.00;1.50;;;;;;;;;;4975813;28;20244;-73
2022/06/14 14:55:24;;;;;;;6.82;2.83;;;;;;;;;;4988737;28;20303;-74
2022/06/14 14:58:17;;;;;;;5.18;2.22;;;;;;;;;;4982602;28;20291;-73
2022/06/14 15:07:06;;;;;;;3.50;1.38;;;;;;;;;;4976424;28;20249;-74
2022/06/14 15:09:48;;;;;;;3.90;1.60;;;;;;;;;;4960796;28;20229;-74
2022/06/14 15:12:24;;;;;;;3.13;1.50;;;;;;;;;;4956697;28;20309;-75
2022/06/14 15:15:20;;;;;;;4.03;1.55;;;;;;;;;;4958621;28;20239;-74
2022/06/14 15:20:45;;;;;;;6.05;1.88;;;;;;;;;;4981635;28;20890;-74
2022/06/14 15:23:40;;;;;;;4.55;1.50;;;;;;;;;;4973973;28;20225;-77
2022/06/14 15:26:18;;;;;;;5.85;1.70;;;;;;;;;;4982847;28;20334;-74
2022/06/14 15:28:49;;;;;;;4.90;1.42;;;;;;;;;;4964806;28;20217;-74
2022/06/14 15:31:26;;;;;;;3.00;1.60;;;;;;;;;;4989546;28;20221;-72
2022/06/14 15:33:53;;;;;;;5.38;1.60;;;;;;;;;;4990718;28;20309;-75
2022/06/14 15:36:32;;;;;;;5.78;1.88;;;;;;;;;;4950793;28;20229;-73
2022/06/14 15:39:19;;;;;;;3.80;1.23;;;;;;;;;;4981646;28;20260;-73
2022/06/14 15:41:45;;;;;;;2.95;1.27;;;;;;;;;;4999011;28;20241;-73
2022/06/14 15:44:14;;;;;;;3.78;1.40;;;;;;;;;;4962841;28;20313;-75
2022/06/14 15:46:57;;;;;;;3.92;1.48;;;;;;;;;;4986944;28;20224;-73
2022/06/14 15:49:44;;;;;;;5.97;1.63;;;;;;;;;;4977839;28;20287;-76
2022/06/14 15:52:20;;;;;;;3.45;1.50;;;;;;;;;;4959665;28;20217;-73
2022/06/14 15:54:55;;;;;;;4.88;1.90;;;;;;;;;;4988637;28;20225;-74
2022/06/14 15:57:29;;;;;;;3.95;1.40;;;;;;;;;;4959506;28;20336;-73
2022/06/14 16:00:20;;;;;;;3.33;1.48;;;;;;;;;;4963565;28;20714;-74
2022/06/14 16:03:04;;;;;;;2.55;1.40;;;;;;;;;;4975830;28;20225;-74
2022/06/14 16:05:58;;;;;;;5.47;1.70;;;;;;;;;;4992535;28;20782;-74
2022/06/14 16:08:28;;;;;;;4.20;1.58;;;;;;;;;;4981847;28;20229;-74
2022/06/14 16:11:05;;;;;;;2.65;1.50;;;;;;;;;;4955702;28;20726;-76
2022/06/14 16:13:45;;;;;;;4.63;1.52;;;;;;;;;;4988662;28;20236;-74
2022/06/14 16:16:34;;;;;;;3.80;1.40;;;;;;;;;;4958824;28;20279;-74
2022/06/14 16:19:30;;;;;;;5.28;1.70;;;;;;;;;;4954366;28;20224;-73
2022/06/14 16:22:03;;;;;;;6.82;1.52;;;;;;;;;;4957231;28;20225;-74
2022/06/14 16:24:30;;;;;;;5.65;1.50;;;;;;;;;;4986570;28;20221;-74
2022/06/14 16:27:10;;;;;;;5.53;1.50;;;;;;;;;;4958004;28;20228;-74
2022/06/14 16:29:48;;;;;;;4.32;1.55;;;;;;;;;;4969761;28;20311;-75